Time;durP1;ratioP1;P1;durP2;ratioP2;P2;SDS_P1;SDS_P2;PMS_P1;PMS_P2;Temp;Humidity;BMP_temperature;BMP_pressure;BME280_temperature;BME280_humidity;BME280_pressure;Samples;Min_cycle;Max_cycle;Signal;HPM_P1;HPM_P2
2021/09/28 00:01:21;;;;;;;12.90;10.32;;;17.40;99.90;;;;;;4124294;28;20073;-63
2021/09/28 00:03:23;;;;;;;12.98;9.38;;;17.40;99.90;;;;;;4124670;28;20088;-63
2021/09/28 00:05:24;;;;;;;13.30;9.38;;;17.40;99.90;;;;;;4123176;28;20058;-63
2021/09/28 00:07:25;;;;;;;12.82;8.25;;;17.40;99.90;;;;;;4123274;28;20133;-63
2021/09/28 00:09:26;;;;;;;15.20;9.48;;;17.30;99.90;;;;;;4119849;28;20038;-64
2021/09/28 00:11:27;;;;;;;12.82;8.75;;;17.20;99.90;;;;;;4120114;28;20100;-63
2021/09/28 00:13:28;;;;;;;12.95;10.20;;;17.20;99.90;;;;;;4118326;28;20022;-68
2021/09/28 00:15:29;;;;;;;14.57;10.07;;;17.10;99.90;;;;;;4119977;28;20034;-63
2021/09/28 00:17:30;;;;;;;15.43;10.05;;;17.10;99.90;;;;;;4120214;28;20038;-63
2021/09/28 00:19:32;;;;;;;14.50;10.10;;;17.10;99.90;;;;;;4119748;28;20085;-63
2021/09/28 00:21:33;;;;;;;13.73;9.93;;;17.00;99.90;;;;;;4118749;28;20092;-67
2021/09/28 00:23:34;;;;;;;12.65;9.98;;;17.00;99.90;;;;;;4118581;28;20050;-64
2021/09/28 00:25:35;;;;;;;17.98;10.90;;;17.00;99.90;;;;;;4119581;28;20093;-63
2021/09/28 00:27:37;;;;;;;18.45;10.90;;;16.90;99.90;;;;;;4118452;28;20097;-64
2021/09/28 00:29:38;;;;;;;13.68;11.00;;;16.90;99.90;;;;;;4119858;28;20092;-62
2021/09/28 00:31:39;;;;;;;18.05;11.23;;;16.90;99.90;;;;;;4118874;28;20085;-63
2021/09/28 00:33:40;;;;;;;22.13;11.63;;;16.80;99.90;;;;;;4120061;28;20038;-63
2021/09/28 00:35:41;;;;;;;17.45;11.95;;;16.80;99.90;;;;;;4119055;28;20046;-63
2021/09/28 00:37:42;;;;;;;18.55;11.25;;;16.80;99.90;;;;;;4119826;28;20112;-66
2021/09/28 00:39:44;;;;;;;19.15;12.20;;;16.80;99.90;;;;;;4120603;28;20042;-64
2021/09/28 00:41:45;;;;;;;19.20;13.32;;;16.80;99.90;;;;;;4124078;28;20038;-63
2021/09/28 00:43:53;;;;;;;20.30;13.73;;;16.80;99.90;;;;;;4123875;28;20092;-63
2021/09/28 00:45:54;;;;;;;20.73;14.20;;;16.80;99.90;;;;;;4123431;28;20085;-64
2021/09/28 00:47:55;;;;;;;22.48;15.05;;;16.80;99.90;;;;;;4119666;28;20888;-65
2021/09/28 00:49:57;;;;;;;20.85;14.15;;;16.70;99.90;;;;;;4120411;28;20398;-63
2021/09/28 00:51:59;;;;;;;20.75;14.00;;;16.70;99.90;;;;;;4119488;28;20034;-65
2021/09/28 00:54:00;;;;;;;20.15;13.77;;;16.70;99.90;;;;;;4119765;28;20026;-63
2021/09/28 00:56:01;;;;;;;19.70;13.93;;;16.70;99.90;;;;;;4119754;28;20497;-63
2021/09/28 00:58:08;;;;;;;20.50;15.73;;;16.70;99.90;;;;;;4119152;28;20038;-64
2021/09/28 01:00:10;;;;;;;19.20;14.00;;;16.70;99.90;;;;;;4119119;28;20129;-64
2021/09/28 01:02:13;;;;;;;24.30;14.77;;;16.60;99.90;;;;;;4118227;28;20042;-66
2021/09/28 01:04:16;;;;;;;22.77;14.43;;;16.70;99.90;;;;;;4121310;28;21173;-63
2021/09/28 01:06:17;;;;;;;20.77;14.10;;;16.70;99.90;;;;;;4118818;28;20077;-63
2021/09/28 01:08:18;;;;;;;22.38;15.20;;;16.70;99.90;;;;;;4119785;28;20034;-68
2021/09/28 01:10:19;;;;;;;23.40;15.23;;;16.70;99.90;;;;;;4118233;28;20929;-64
2021/09/28 01:12:21;;;;;;;25.58;15.00;;;16.80;99.90;;;;;;4124079;28;20046;-65
2021/09/28 01:14:22;;;;;;;25.75;15.55;;;16.80;99.90;;;;;;4123580;28;20089;-63
2021/09/28 01:16:24;;;;;;;21.08;13.95;;;16.80;99.90;;;;;;4121922;28;20450;-64
2021/09/28 01:18:29;;;;;;;22.35;14.43;;;16.80;99.90;;;;;;4118135;28;20046;-63
2021/09/28 01:20:35;;;;;;;18.98;13.77;;;16.80;99.90;;;;;;4119252;28;20104;-64
2021/09/28 01:22:36;;;;;;;21.13;13.55;;;16.80;99.90;;;;;;4118375;28;20038;-64
2021/09/28 01:24:38;;;;;;;20.73;14.73;;;16.80;99.90;;;;;;4119092;28;20446;-64
2021/09/28 01:26:40;;;;;;;22.85;14.98;;;16.80;99.90;;;;;;4119221;28;20026;-63
2021/09/28 01:28:41;;;;;;;19.85;13.30;;;16.80;99.90;;;;;;4119015;28;20514;-64
2021/09/28 01:30:42;;;;;;;18.33;12.80;;;16.80;99.90;;;;;;4119568;28;20447;-64
2021/09/28 01:32:43;;;;;;;19.60;12.38;;;16.90;99.90;;;;;;4116858;28;20514;-64
2021/09/28 01:34:44;;;;;;;18.55;13.35;;;16.90;99.90;;;;;;4123044;28;20034;-64
2021/09/28 01:36:47;;;;;;;19.65;12.43;;;16.80;99.90;;;;;;4121944;28;20058;-64
2021/09/28 01:38:49;;;;;;;16.80;12.45;;;16.80;99.90;;;;;;4122342;28;20034;-64
2021/09/28 01:40:50;;;;;;;14.25;12.18;;;16.90;99.90;;;;;;4121705;28;20054;-62
2021/09/28 01:42:51;;;;;;;16.83;12.63;;;16.80;99.90;;;;;;4127487;28;20132;-63
2021/09/28 01:44:52;;;;;;;14.35;11.98;;;16.80;99.90;;;;;;4126136;28;20030;-64
2021/09/28 01:46:53;;;;;;;14.40;10.95;;;16.80;99.90;;;;;;4122992;28;20030;-64
2021/09/28 01:48:55;;;;;;;15.13;11.32;;;16.90;99.90;;;;;;4120426;28;20510;-64
2021/09/28 01:50:57;;;;;;;15.48;11.60;;;16.90;99.90;;;;;;4123053;28;20042;-64
2021/09/28 01:52:59;;;;;;;14.65;11.85;;;16.90;99.90;;;;;;4121838;28;20561;-64
2021/09/28 01:55:00;;;;;;;16.95;11.25;;;16.90;99.90;;;;;;4121816;28;20110;-64
2021/09/28 01:57:03;;;;;;;14.13;11.07;;;16.80;99.90;;;;;;4119104;28;20039;-63
2021/09/28 01:59:06;;;;;;;14.07;11.40;;;16.90;99.90;;;;;;4121547;28;20064;-64
2021/09/28 02:01:07;;;;;;;15.00;11.93;;;16.90;99.90;;;;;;4121209;28;20451;-65
2021/09/28 02:03:08;;;;;;;14.88;11.98;;;16.80;99.90;;;;;;4121374;28;20473;-63
2021/09/28 02:05:09;;;;;;;16.05;12.88;;;16.80;99.90;;;;;;4122584;28;20026;-63
2021/09/28 02:07:10;;;;;;;16.13;12.60;;;16.80;99.90;;;;;;4120074;28;20050;-64
2021/09/28 02:09:12;;;;;;;15.77;12.52;;;16.90;99.90;;;;;;4121999;28;20860;-67
2021/09/28 02:11:13;;;;;;;15.90;12.52;;;16.80;99.90;;;;;;4123426;28;20054;-64
2021/09/28 02:13:15;;;;;;;16.08;12.45;;;16.80;99.90;;;;;;4125481;28;20093;-64
2021/09/28 02:15:17;;;;;;;14.63;11.75;;;16.80;99.90;;;;;;4125290;28;20434;-65
2021/09/28 02:17:18;;;;;;;14.82;11.82;;;16.80;99.90;;;;;;4126524;28;20085;-63
2021/09/28 02:19:19;;;;;;;15.07;11.52;;;16.80;99.90;;;;;;4125417;28;20432;-65
2021/09/28 02:21:20;;;;;;;14.70;11.68;;;16.80;99.90;;;;;;4126377;28;20102;-64
2021/09/28 02:23:21;;;;;;;14.88;12.18;;;16.70;99.90;;;;;;4125535;28;20034;-65
2021/09/28 02:25:23;;;;;;;16.95;11.50;;;16.70;99.90;;;;;;4126064;28;20034;-64
2021/09/28 02:27:24;;;;;;;15.02;11.93;;;16.70;99.90;;;;;;4125786;28;20042;-64
2021/09/28 02:29:25;;;;;;;15.70;12.77;;;16.70;99.90;;;;;;4126018;28;20039;-64
2021/09/28 02:31:27;;;;;;;17.20;12.75;;;16.80;99.90;;;;;;4125492;28;20368;-65
2021/09/28 02:33:28;;;;;;;17.73;12.55;;;16.80;99.90;;;;;;4126150;28;20034;-65
2021/09/28 02:35:29;;;;;;;15.60;12.85;;;16.70;99.90;;;;;;4126449;28;20031;-63
2021/09/28 02:37:32;;;;;;;16.13;12.40;;;16.80;99.90;;;;;;4124937;28;20085;-64
2021/09/28 02:39:37;;;;;;;15.63;12.57;;;16.70;99.90;;;;;;4126043;28;20094;-64
2021/09/28 02:41:38;;;;;;;18.75;13.55;;;16.70;99.90;;;;;;4124076;28;21135;-63
2021/09/28 02:43:39;;;;;;;14.27;12.45;;;16.70;99.90;;;;;;4126212;28;20451;-65
2021/09/28 02:45:41;;;;;;;14.40;11.95;;;16.60;99.90;;;;;;4122218;28;20034;-63
2021/09/28 02:47:42;;;;;;;15.65;11.80;;;16.60;99.90;;;;;;4126496;28;20872;-64
2021/09/28 02:49:43;;;;;;;15.93;12.00;;;16.70;99.90;;;;;;4124952;28;20080;-63
2021/09/28 02:51:44;;;;;;;22.33;13.07;;;16.70;99.90;;;;;;4126192;28;20738;-64
2021/09/28 02:53:45;;;;;;;14.55;12.50;;;16.70;99.90;;;;;;4124679;28;20068;-64
2021/09/28 02:55:46;;;;;;;17.50;13.55;;;16.60;99.90;;;;;;4126380;28;20049;-64
2021/09/28 02:57:47;;;;;;;17.23;13.77;;;16.60;99.90;;;;;;4124539;28;20077;-64
2021/09/28 02:59:49;;;;;;;18.58;13.25;;;16.60;99.90;;;;;;4125440;28;20097;-64
2021/09/28 03:01:50;;;;;;;16.75;11.98;;;16.60;99.90;;;;;;4123759;28;20092;-63
2021/09/28 03:03:51;;;;;;;14.05;11.88;;;16.60;99.90;;;;;;4125041;28;20030;-64
2021/09/28 03:05:52;;;;;;;12.40;10.77;;;16.50;99.90;;;;;;4125936;28;20351;-64
2021/09/28 03:07:53;;;;;;;16.27;12.10;;;16.40;99.90;;;;;;4124588;28;20038;-63
2021/09/28 03:09:55;;;;;;;13.90;10.63;;;16.40;99.90;;;;;;4125551;28;20663;-63
2021/09/28 03:11:56;;;;;;;16.58;12.40;;;16.30;99.90;;;;;;4123842;28;20833;-63
2021/09/28 03:13:59;;;;;;;14.77;12.18;;;16.20;99.90;;;;;;4125711;28;20105;-63
2021/09/28 03:16:00;;;;;;;14.63;11.93;;;16.20;99.90;;;;;;4124313;28;20026;-63
2021/09/28 03:18:01;;;;;;;15.68;11.98;;;16.10;99.90;;;;;;4125727;28;20054;-62
2021/09/28 03:20:04;;;;;;;16.08;12.32;;;16.10;99.90;;;;;;4124353;28;20486;-62
2021/09/28 03:22:05;;;;;;;15.57;12.27;;;16.10;99.90;;;;;;4125012;28;20104;-62
2021/09/28 03:24:06;;;;;;;13.60;12.05;;;16.10;99.90;;;;;;4124621;28;20100;-64
2021/09/28 03:26:08;;;;;;;15.10;12.25;;;16.10;99.90;;;;;;4125260;28;20046;-68
2021/09/28 03:28:09;;;;;;;18.77;12.40;;;16.10;99.90;;;;;;4124517;28;20042;-64
2021/09/28 03:30:11;;;;;;;18.45;13.40;;;16.10;99.90;;;;;;4124967;28;20089;-64
2021/09/28 03:32:12;;;;;;;17.95;14.00;;;16.10;99.90;;;;;;4124548;28;20146;-63
2021/09/28 03:34:13;;;;;;;21.25;14.20;;;16.10;99.90;;;;;;4124379;28;20027;-64
2021/09/28 03:36:14;;;;;;;16.08;13.18;;;16.00;99.90;;;;;;4125292;28;20034;-65
2021/09/28 03:38:15;;;;;;;18.02;14.32;;;16.00;99.90;;;;;;4124044;28;20046;-63
2021/09/28 03:40:16;;;;;;;16.80;13.77;;;16.00;99.90;;;;;;4124465;28;20038;-62
2021/09/28 03:42:17;;;;;;;18.00;14.02;;;16.10;99.90;;;;;;4123330;28;20054;-64
2021/09/28 03:44:19;;;;;;;18.42;13.13;;;16.10;99.90;;;;;;4125072;28;20727;-63
2021/09/28 03:46:20;;;;;;;20.23;14.65;;;16.10;99.90;;;;;;4124134;28;20031;-64
2021/09/28 03:48:22;;;;;;;21.35;15.90;;;16.20;99.90;;;;;;4125397;28;20089;-67
2021/09/28 03:50:25;;;;;;;20.27;15.73;;;16.20;99.90;;;;;;4124101;28;20363;-63
2021/09/28 03:52:26;;;;;;;19.27;14.98;;;16.20;99.90;;;;;;4124427;28;20046;-65
2021/09/28 03:54:28;;;;;;;20.83;14.60;;;16.20;99.90;;;;;;4123846;28;20038;-68
2021/09/28 03:56:29;;;;;;;21.25;15.05;;;16.20;99.90;;;;;;4124757;28;20054;-63
2021/09/28 03:58:30;;;;;;;19.85;15.05;;;16.10;99.90;;;;;;4123849;28;20097;-66
2021/09/28 04:00:31;;;;;;;19.92;15.45;;;16.10;99.90;;;;;;4124755;28;20088;-63
2021/09/28 04:02:32;;;;;;;25.35;15.63;;;16.10;99.90;;;;;;4123445;28;20042;-63
2021/09/28 04:04:33;;;;;;;21.95;15.48;;;16.10;99.90;;;;;;4124186;28;20081;-64
2021/09/28 04:06:34;;;;;;;19.50;15.23;;;16.10;99.90;;;;;;4124579;28;20042;-66
2021/09/28 04:08:36;;;;;;;22.52;16.20;;;16.10;99.90;;;;;;4123676;28;20026;-63
2021/09/28 04:10:37;;;;;;;23.80;15.85;;;16.10;99.90;;;;;;4124102;28;20030;-67
2021/09/28 04:12:39;;;;;;;22.63;16.10;;;16.10;99.90;;;;;;4123239;28;20034;-68
2021/09/28 04:14:43;;;;;;;21.13;15.02;;;16.10;99.90;;;;;;4124389;28;20030;-64
2021/09/28 04:16:44;;;;;;;20.02;15.38;;;16.00;99.90;;;;;;4122725;28;20058;-64
2021/09/28 04:18:46;;;;;;;20.92;15.90;;;16.10;99.90;;;;;;4124066;28;20038;-64
2021/09/28 04:20:47;;;;;;;22.00;15.63;;;16.10;99.90;;;;;;4120950;28;20101;-63
2021/09/28 04:22:48;;;;;;;22.23;16.63;;;16.10;99.90;;;;;;4123960;28;20584;-66
2021/09/28 04:24:50;;;;;;;19.17;14.80;;;16.10;99.90;;;;;;4123187;28;20035;-64
2021/09/28 04:26:52;;;;;;;18.45;13.90;;;16.10;99.90;;;;;;4123782;28;20054;-66
2021/09/28 04:28:53;;;;;;;25.67;16.27;;;16.10;99.90;;;;;;4123489;28;20026;-65
2021/09/28 04:30:54;;;;;;;19.08;15.13;;;16.10;99.90;;;;;;4124494;28;20065;-64
2021/09/28 04:32:56;;;;;;;22.65;15.43;;;16.10;99.90;;;;;;4123070;28;20038;-64
2021/09/28 04:34:57;;;;;;;25.40;16.20;;;16.20;99.90;;;;;;4124375;28;20034;-63
2021/09/28 04:36:58;;;;;;;21.05;15.88;;;16.10;99.90;;;;;;4122975;28;20589;-63
2021/09/28 04:38:59;;;;;;;22.90;16.65;;;16.10;99.90;;;;;;4123534;28;20089;-64
2021/09/28 04:41:00;;;;;;;24.08;16.35;;;16.00;99.90;;;;;;4123161;28;20058;-64
2021/09/28 04:43:02;;;;;;;23.15;16.45;;;16.00;99.90;;;;;;4121880;28;20066;-63
2021/09/28 04:45:04;;;;;;;21.70;16.38;;;16.00;99.90;;;;;;4124206;28;20026;-63
2021/09/28 04:47:05;;;;;;;23.27;16.55;;;16.00;99.90;;;;;;4122803;28;20034;-65
2021/09/28 04:49:06;;;;;;;28.67;15.73;;;16.00;99.90;;;;;;4124440;28;20042;-64
2021/09/28 04:51:07;;;;;;;23.67;17.08;;;16.00;99.90;;;;;;4122634;28;20117;-64
2021/09/28 04:53:08;;;;;;;25.35;17.17;;;16.00;99.90;;;;;;4123577;28;20042;-64
2021/09/28 04:55:10;;;;;;;22.67;15.90;;;16.00;99.90;;;;;;4122541;28;20066;-66
2021/09/28 04:57:11;;;;;;;23.38;17.35;;;16.00;99.90;;;;;;4124268;28;20035;-63
2021/09/28 04:59:12;;;;;;;24.05;16.33;;;15.90;99.90;;;;;;4122928;28;20434;-65
2021/09/28 05:01:14;;;;;;;25.20;16.70;;;15.90;99.90;;;;;;4124467;28;20101;-69
2021/09/28 05:03:15;;;;;;;27.23;16.10;;;15.90;99.90;;;;;;4122837;28;20038;-63
2021/09/28 05:05:17;;;;;;;27.13;17.70;;;15.90;99.90;;;;;;4108577;28;20126;-67
2021/09/28 05:07:18;;;;;;;25.52;16.98;;;15.90;99.90;;;;;;4117403;28;20972;-63
2021/09/28 05:09:19;;;;;;;24.17;16.15;;;15.90;99.90;;;;;;4125210;28;20050;-73
2021/09/28 05:11:20;;;;;;;21.88;15.98;;;15.90;99.90;;;;;;4126612;28;20045;-67
2021/09/28 05:13:21;;;;;;;27.02;17.45;;;15.90;99.90;;;;;;4125648;28;20038;-63
2021/09/28 05:15:22;;;;;;;24.75;16.65;;;16.00;99.90;;;;;;4127227;28;20034;-68
2021/09/28 05:17:24;;;;;;;24.20;16.95;;;16.00;99.90;;;;;;4126331;28;20027;-65
2021/09/28 05:19:26;;;;;;;27.65;17.83;;;15.90;99.90;;;;;;4127418;28;20046;-65
2021/09/28 05:21:27;;;;;;;21.75;16.08;;;15.90;99.90;;;;;;4125640;28;20348;-64
2021/09/28 05:23:28;;;;;;;30.73;18.38;;;15.80;99.90;;;;;;4127425;28;20078;-63
2021/09/28 05:25:30;;;;;;;24.55;15.82;;;15.80;99.90;;;;;;4125586;28;20096;-64
2021/09/28 05:27:31;;;;;;;25.92;17.65;;;15.80;99.90;;;;;;4127069;28;20041;-64
2021/09/28 05:29:34;;;;;;;27.75;18.95;;;15.80;99.90;;;;;;4125905;28;20096;-64
2021/09/28 05:31:35;;;;;;;23.90;17.27;;;15.70;99.90;;;;;;4127170;28;20027;-63
2021/09/28 05:33:36;;;;;;;28.85;18.23;;;15.70;99.90;;;;;;4125417;28;20371;-63
2021/09/28 05:35:38;;;;;;;26.27;17.77;;;15.70;99.90;;;;;;4126952;28;20034;-62
2021/09/28 05:37:40;;;;;;;28.70;18.45;;;15.70;99.90;;;;;;4125962;28;20132;-63
2021/09/28 05:39:41;;;;;;;29.70;18.45;;;15.70;99.90;;;;;;4126169;28;20094;-63
2021/09/28 05:41:42;;;;;;;28.02;19.00;;;15.70;99.90;;;;;;4126314;28;20054;-65
2021/09/28 05:43:44;;;;;;;27.23;19.08;;;15.70;99.90;;;;;;4125715;28;20093;-63
2021/09/28 05:45:45;;;;;;;26.08;18.55;;;15.80;99.90;;;;;;4126484;28;20081;-63
2021/09/28 05:47:48;;;;;;;27.33;17.85;;;15.70;99.90;;;;;;4125775;28;20050;-63
2021/09/28 05:49:49;;;;;;;24.48;17.65;;;15.70;99.90;;;;;;4126608;28;20038;-64
2021/09/28 05:51:53;;;;;;;26.38;17.15;;;15.70;99.90;;;;;;4125323;28;20112;-63
2021/09/28 05:53:57;;;;;;;30.95;19.25;;;15.70;99.90;;;;;;4126562;28;20047;-63
2021/09/28 05:55:58;;;;;;;26.17;18.73;;;15.70;99.90;;;;;;4125456;28;20438;-63
2021/09/28 05:58:00;;;;;;;28.45;18.38;;;15.60;99.90;;;;;;4124741;28;20046;-64
2021/09/28 06:00:02;;;;;;;29.08;19.73;;;15.60;99.90;;;;;;4125378;28;20467;-65
2021/09/28 06:02:04;;;;;;;27.55;19.13;;;15.70;99.90;;;;;;4126166;28;20883;-65
2021/09/28 06:04:05;;;;;;;31.63;19.00;;;15.70;99.90;;;;;;4123200;28;20438;-67
2021/09/28 06:06:06;;;;;;;32.72;18.48;;;15.70;99.90;;;;;;4124240;28;20115;-65
2021/09/28 06:08:07;;;;;;;29.20;19.58;;;15.70;99.90;;;;;;4125111;28;20580;-67
2021/09/28 06:10:09;;;;;;;30.95;19.63;;;15.80;99.90;;;;;;4125508;28;20096;-64
2021/09/28 06:12:11;;;;;;;25.73;19.17;;;15.70;99.90;;;;;;4125239;28;20042;-64
2021/09/28 06:14:12;;;;;;;25.30;18.05;;;15.80;99.90;;;;;;4125018;28;20027;-68
2021/09/28 06:16:13;;;;;;;29.65;20.00;;;15.80;99.90;;;;;;4125606;28;20034;-63
2021/09/28 06:18:14;;;;;;;28.70;19.52;;;15.90;99.90;;;;;;4125066;28;20454;-63
2021/09/28 06:20:16;;;;;;;29.50;19.15;;;15.90;99.90;;;;;;4119774;28;20738;-64
2021/09/28 06:22:17;;;;;;;32.10;21.35;;;15.90;99.90;;;;;;4123152;28;20149;-63
2021/09/28 06:24:18;;;;;;;40.80;22.17;;;15.90;99.90;;;;;;4126148;28;20486;-63
2021/09/28 06:26:21;;;;;;;35.10;21.13;;;15.90;99.90;;;;;;4124240;28;20030;-63
2021/09/28 06:28:22;;;;;;;29.67;19.30;;;15.90;99.90;;;;;;4123552;28;20043;-65
2021/09/28 06:30:23;;;;;;;31.20;21.02;;;15.90;99.90;;;;;;4108636;28;20098;-62
2021/09/28 06:32:24;;;;;;;33.17;20.80;;;15.90;99.90;;;;;;4124382;28;20108;-63
2021/09/28 06:34:25;;;;;;;26.92;18.73;;;15.90;99.90;;;;;;4125094;28;20081;-64
2021/09/28 06:36:27;;;;;;;30.23;19.80;;;15.90;99.90;;;;;;4126095;28;20038;-65
2021/09/28 06:38:28;;;;;;;25.85;17.38;;;15.90;99.90;;;;;;4124400;28;20038;-68
2021/09/28 06:40:30;;;;;;;30.08;19.67;;;15.90;99.90;;;;;;4125838;28;20061;-65
2021/09/28 06:42:31;;;;;;;28.20;18.55;;;16.00;99.90;;;;;;4122534;28;20050;-63
2021/09/28 06:44:32;;;;;;;29.73;18.75;;;16.00;99.90;;;;;;4117431;28;20101;-68
2021/09/28 06:46:33;;;;;;;29.95;17.85;;;16.00;99.90;;;;;;4108711;28;20051;-68
2021/09/28 06:48:35;;;;;;;27.13;17.88;;;16.10;99.90;;;;;;4115903;28;20030;-64
2021/09/28 06:50:36;;;;;;;28.58;17.92;;;16.10;99.90;;;;;;4115928;28;20038;-63
2021/09/28 06:52:37;;;;;;;30.05;19.55;;;16.20;99.90;;;;;;4108616;28;20503;-64
2021/09/28 06:54:39;;;;;;;27.42;16.55;;;16.20;99.90;;;;;;4116368;28;20042;-65
2021/09/28 06:56:41;;;;;;;24.33;16.95;;;16.20;99.90;;;;;;4124412;28;20046;-63
2021/09/28 06:58:42;;;;;;;26.70;18.33;;;16.30;99.90;;;;;;4125336;28;20108;-64
2021/09/28 07:00:43;;;;;;;28.70;17.55;;;16.30;99.90;;;;;;4124592;28;20085;-63
2021/09/28 07:02:44;;;;;;;23.98;15.68;;;16.30;99.90;;;;;;4125591;28;20510;-62
2021/09/28 07:04:45;;;;;;;29.13;15.20;;;16.40;99.90;;;;;;4124906;28;20022;-63
2021/09/28 07:06:47;;;;;;;22.85;16.25;;;16.40;99.90;;;;;;4116908;28;20461;-63
2021/09/28 07:08:49;;;;;;;23.42;15.85;;;16.40;99.90;;;;;;4108348;28;20084;-63
2021/09/28 07:10:51;;;;;;;29.70;16.58;;;16.40;99.90;;;;;;4108758;28;20054;-63
2021/09/28 07:12:52;;;;;;;23.00;14.50;;;16.40;99.90;;;;;;4108947;28;20483;-67
2021/09/28 07:14:53;;;;;;;23.75;15.88;;;16.50;99.90;;;;;;4109350;28;20123;-62
2021/09/28 07:16:54;;;;;;;20.85;15.65;;;16.50;99.90;;;;;;4109491;28;20423;-63
2021/09/28 07:18:55;;;;;;;25.98;15.77;;;16.50;99.90;;;;;;4108983;28;20031;-62
2021/09/28 07:20:56;;;;;;;24.92;15.82;;;16.50;99.90;;;;;;4108993;28;20043;-63
2021/09/28 07:22:57;;;;;;;26.02;16.13;;;16.60;99.90;;;;;;4108144;28;20439;-64
2021/09/28 07:24:59;;;;;;;23.33;16.55;;;16.60;99.90;;;;;;4109602;28;20038;-66
2021/09/28 07:27:00;;;;;;;22.63;14.85;;;16.60;99.90;;;;;;4108329;28;20043;-64
2021/09/28 07:29:01;;;;;;;20.63;15.63;;;16.70;99.90;;;;;;4109618;28;20906;-64
2021/09/28 07:31:03;;;;;;;22.23;15.25;;;16.70;99.90;;;;;;4107839;28;20035;-63
2021/09/28 07:33:05;;;;;;;26.63;17.58;;;16.80;99.90;;;;;;4108947;28;20039;-65
2021/09/28 07:35:07;;;;;;;24.05;17.23;;;16.90;99.90;;;;;;4108007;28;20027;-65
2021/09/28 07:37:09;;;;;;;22.45;16.77;;;17.00;99.90;;;;;;4109222;28;20047;-68
2021/09/28 07:39:10;;;;;;;26.55;18.15;;;17.00;99.90;;;;;;4105409;28;20043;-66
2021/09/28 07:41:11;;;;;;;26.05;17.38;;;17.10;99.90;;;;;;4108483;28;20084;-67
2021/09/28 07:43:13;;;;;;;25.42;19.05;;;17.10;99.90;;;;;;4107452;28;20546;-67
2021/09/28 07:45:14;;;;;;;27.27;18.48;;;17.10;99.90;;;;;;4107373;28;20372;-67
2021/09/28 07:47:15;;;;;;;23.23;16.55;;;17.20;99.90;;;;;;4111259;28;20085;-69
2021/09/28 07:49:18;;;;;;;26.75;18.02;;;17.20;99.90;;;;;;4122860;28;20034;-65
2021/09/28 07:51:19;;;;;;;25.33;16.90;;;17.20;99.90;;;;;;4123796;28;20494;-66
2021/09/28 07:53:20;;;;;;;25.27;17.75;;;17.20;99.90;;;;;;4122631;28;20515;-65
2021/09/28 07:55:21;;;;;;;28.30;17.15;;;17.30;99.90;;;;;;4124814;28;20890;-66
2021/09/28 07:57:22;;;;;;;26.95;16.33;;;17.30;99.90;;;;;;4123223;28;20100;-68
2021/09/28 07:59:23;;;;;;;25.17;16.67;;;17.30;99.90;;;;;;4124624;28;20031;-72
2021/09/28 08:01:24;;;;;;;23.13;16.65;;;17.40;99.90;;;;;;4122767;28;20741;-65
2021/09/28 08:03:26;;;;;;;22.10;17.42;;;17.50;99.90;;;;;;4124617;28;20038;-67
2021/09/28 08:05:27;;;;;;;25.50;18.08;;;17.50;99.90;;;;;;4122139;28;20442;-67
2021/09/28 08:07:28;;;;;;;26.80;18.60;;;17.50;99.90;;;;;;4104831;28;20622;-66
2021/09/28 08:09:29;;;;;;;23.90;17.95;;;17.60;99.90;;;;;;4120595;28;20030;-65
2021/09/28 08:11:30;;;;;;;23.67;17.02;;;17.70;99.90;;;;;;4121711;28;20050;-65
2021/09/28 08:13:31;;;;;;;24.58;16.83;;;17.70;99.90;;;;;;4121730;28;20092;-68
2021/09/28 08:15:34;;;;;;;23.02;16.55;;;17.90;99.90;;;;;;4121199;28;20858;-66
2021/09/28 08:17:36;;;;;;;22.67;17.48;;;18.00;99.90;;;;;;4121822;28;20058;-67
2021/09/28 08:19:39;;;;;;;26.95;19.08;;;18.10;99.90;;;;;;4120545;28;20026;-65
2021/09/28 08:21:42;;;;;;;23.75;17.52;;;18.30;99.90;;;;;;4119620;28;20454;-64
2021/09/28 08:23:44;;;;;;;20.70;15.63;;;18.30;99.90;;;;;;4115702;28;20073;-64
2021/09/28 08:30:10;;;;;;;27.65;18.83;;;18.80;99.90;;;;;;4122579;28;20446;-65
2021/09/28 08:32:12;;;;;;;26.08;16.35;;;19.00;99.90;;;;;;4120128;28;20966;-66
2021/09/28 08:34:14;;;;;;;23.13;16.70;;;19.10;99.90;;;;;;4121400;28;20093;-66
2021/09/28 08:36:15;;;;;;;24.30;16.02;;;19.20;99.90;;;;;;4116058;28;20246;-66
2021/09/28 08:38:16;;;;;;;22.70;14.02;;;19.20;99.90;;;;;;4121615;28;20058;-68
2021/09/28 08:40:19;;;;;;;21.80;14.68;;;19.20;99.90;;;;;;4120604;28;20043;-65
2021/09/28 08:42:20;;;;;;;20.38;13.77;;;19.30;99.90;;;;;;4122237;28;20490;-65
2021/09/28 08:44:21;;;;;;;22.55;14.68;;;19.40;99.90;;;;;;4123934;28;20132;-66
2021/09/28 08:46:25;;;;;;;19.98;14.32;;;19.50;99.90;;;;;;4125641;28;20043;-65
2021/09/28 08:48:27;;;;;;;21.23;15.48;;;19.60;99.90;;;;;;4124150;28;20093;-66
2021/09/28 08:50:29;;;;;;;21.15;14.73;;;19.70;99.90;;;;;;4124084;28;20034;-66
2021/09/28 08:52:30;;;;;;;19.27;14.48;;;19.80;99.90;;;;;;4124171;28;20172;-65
2021/09/28 08:54:32;;;;;;;23.95;15.18;;;19.90;99.90;;;;;;4124553;28;20100;-66
2021/09/28 08:56:34;;;;;;;21.52;14.63;;;19.90;99.90;;;;;;4124744;28;20144;-65
2021/09/28 08:58:55;;;;;;;20.15;13.52;;;19.80;99.90;;;;;;4123832;28;20493;-66
2021/09/28 09:01:08;;;;;;;21.90;13.85;;;19.80;99.90;;;;;;4124437;28;20026;-65
2021/09/28 09:03:28;;;;;;;22.88;15.95;;;19.80;99.90;;;;;;4124636;28;20046;-66
2021/09/28 09:05:29;;;;;;;;;;;19.80;99.90;;;;;;4124525;28;20022;-68
2021/09/28 09:07:31;;;;;;;21.10;15.13;;;19.90;99.90;;;;;;4123499;28;19914;-62
2021/09/28 09:09:45;;;;;;;23.83;14.05;;;20.10;99.90;;;;;;4124367;28;20140;-66
2021/09/28 09:11:48;;;;;;;18.23;13.30;;;20.00;99.90;;;;;;4124371;28;20849;-64
2021/09/28 09:13:54;;;;;;;17.70;13.35;;;19.90;99.90;;;;;;4124972;28;20037;-70
2021/09/28 09:15:57;;;;;;;20.08;14.43;;;19.80;99.90;;;;;;4123810;28;20904;-64
2021/09/28 09:18:02;;;;;;;15.93;12.55;;;19.80;99.90;;;;;;4125369;28;20414;-64
2021/09/28 09:20:30;;;;;;;25.88;15.65;;;19.80;99.90;;;;;;4123573;28;20434;-64
2021/09/28 09:22:32;;;;;;;20.17;15.30;;;19.80;99.90;;;;;;4123769;28;20050;-64
2021/09/28 09:24:41;;;;;;;23.98;14.63;;;19.90;99.90;;;;;;4117816;28;20042;-63
2021/09/28 09:26:45;;;;;;;22.80;16.23;;;20.10;99.90;;;;;;4124629;28;20038;-63
2021/09/28 09:28:48;;;;;;;24.00;15.70;;;20.20;99.90;;;;;;4123258;28;20039;-65
2021/09/28 09:30:50;;;;;;;21.25;14.15;;;20.10;99.90;;;;;;4124712;28;20038;-66
2021/09/28 09:32:56;;;;;;;25.15;16.17;;;19.90;99.90;;;;;;4123482;28;20034;-67
2021/09/28 09:34:57;;;;;;;22.65;14.93;;;19.80;99.90;;;;;;4124368;28;20089;-64
2021/09/28 09:37:10;;;;;;;18.60;11.93;;;19.70;99.90;;;;;;4122773;28;20058;-66
2021/09/28 09:39:11;;;;;;;16.55;10.25;;;19.80;99.90;;;;;;4122602;28;20038;-64
2021/09/28 09:41:13;;;;;;;18.52;11.95;;;19.80;99.90;;;;;;4110513;28;20096;-66
2021/09/28 09:43:17;;;;;;;19.27;12.48;;;19.70;99.90;;;;;;4124572;28;20038;-66
2021/09/28 09:45:25;;;;;;;17.48;11.43;;;19.50;99.90;;;;;;4123141;28;20030;-65
2021/09/28 09:47:37;;;;;;;15.90;11.45;;;19.50;99.90;;;;;;4124190;28;20050;-65
2021/09/28 09:49:38;;;;;;;16.52;12.35;;;19.40;99.90;;;;;;4123355;28;20050;-66
2021/09/28 09:51:46;;;;;;;19.55;12.70;;;19.30;99.90;;;;;;4123407;28;20046;-68
2021/09/28 09:53:59;;;;;;;17.52;12.68;;;19.20;99.90;;;;;;4122180;28;20030;-65
2021/09/28 09:56:00;;;;;;;19.70;12.70;;;19.10;99.90;;;;;;4123889;28;20030;-64
2021/09/28 09:58:03;;;;;;;17.08;12.20;;;19.10;99.90;;;;;;4122127;28;20105;-63
2021/09/28 10:00:05;;;;;;;18.52;12.43;;;19.00;99.90;;;;;;4124338;28;20030;-64
2021/09/28 10:02:08;;;;;;;16.92;12.15;;;19.00;99.90;;;;;;4122822;28;20475;-63
2021/09/28 10:04:11;;;;;;;16.40;12.50;;;19.10;99.90;;;;;;4123709;28;20090;-63
2021/09/28 10:06:12;;;;;;;17.48;11.85;;;19.10;99.90;;;;;;4122241;28;20042;-66
2021/09/28 10:08:14;;;;;;;15.40;11.13;;;19.20;99.90;;;;;;4122696;28;20077;-65
2021/09/28 10:10:20;;;;;;;14.98;11.13;;;19.10;99.90;;;;;;4122918;28;20038;-64
2021/09/28 10:12:21;;;;;;;15.23;11.25;;;19.10;99.90;;;;;;4122649;28;20101;-63
2021/09/28 10:14:39;;;;;;;16.48;12.13;;;19.20;99.90;;;;;;4123355;28;20551;-67
2021/09/28 10:16:42;;;;;;;17.75;11.68;;;19.20;99.90;;;;;;4123712;28;20929;-64
2021/09/28 10:18:43;;;;;;;13.20;11.07;;;19.20;99.90;;;;;;4122557;28;20046;-63
2021/09/28 10:20:46;;;;;;;14.35;11.13;;;19.20;99.90;;;;;;4122395;28;20061;-64
2021/09/28 10:22:52;;;;;;;15.75;10.57;;;19.20;99.90;;;;;;4123149;28;20454;-67
2021/09/28 10:25:13;;;;;;;16.30;10.55;;;19.10;99.90;;;;;;4117115;28;20092;-63